sensor_id;sensor_type;location;lat;lon;timestamp;P1;durP1;ratioP1;P2;durP2;ratioP2
38113;SDS011;23926;53.222;6.354;2023-05-10T00:01:23;20.63;;;13.63;;
38113;SDS011;23926;53.222;6.354;2023-05-10T00:03:48;14.75;;;11.98;;
38113;SDS011;23926;53.222;6.354;2023-05-10T00:06:14;12.15;;;10.18;;
38113;SDS011;23926;53.222;6.354;2023-05-10T00:08:39;19.80;;;12.88;;
38113;SDS011;23926;53.222;6.354;2023-05-10T00:11:05;16.73;;;12.27;;
38113;SDS011;23926;53.222;6.354;2023-05-10T00:13:30;14.65;;;11.07;;
38113;SDS011;23926;53.222;6.354;2023-05-10T00:15:56;14.77;;;10.75;;
38113;SDS011;23926;53.222;6.354;2023-05-10T00:18:22;22.42;;;13.48;;
38113;SDS011;23926;53.222;6.354;2023-05-10T00:20:47;12.32;;;9.85;;
38113;SDS011;23926;53.222;6.354;2023-05-10T00:23:13;16.15;;;11.50;;
38113;SDS011;23926;53.222;6.354;2023-05-10T00:25:39;18.55;;;12.23;;
38113;SDS011;23926;53.222;6.354;2023-05-10T00:28:05;11.85;;;9.43;;
38113;SDS011;23926;53.222;6.354;2023-05-10T00:30:30;10.05;;;8.65;;
38113;SDS011;23926;53.222;6.354;2023-05-10T00:32:55;12.02;;;8.50;;
38113;SDS011;23926;53.222;6.354;2023-05-10T00:35:21;8.90;;;7.43;;
38113;SDS011;23926;53.222;6.354;2023-05-10T00:37:46;8.07;;;7.28;;
38113;SDS011;23926;53.222;6.354;2023-05-10T00:40:12;6.78;;;6.13;;
38113;SDS011;23926;53.222;6.354;2023-05-10T00:42:38;8.90;;;7.90;;
38113;SDS011;23926;53.222;6.354;2023-05-10T00:45:03;10.60;;;7.85;;
38113;SDS011;23926;53.222;6.354;2023-05-10T00:47:29;11.23;;;9.18;;
38113;SDS011;23926;53.222;6.354;2023-05-10T00:49:54;15.68;;;10.32;;
38113;SDS011;23926;53.222;6.354;2023-05-10T00:52:20;17.90;;;11.27;;
38113;SDS011;23926;53.222;6.354;2023-05-10T00:54:48;10.40;;;8.55;;
38113;SDS011;23926;53.222;6.354;2023-05-10T00:57:14;13.27;;;10.57;;
38113;SDS011;23926;53.222;6.354;2023-05-10T00:59:39;10.35;;;8.20;;
38113;SDS011;23926;53.222;6.354;2023-05-10T01:02:05;17.17;;;11.43;;
38113;SDS011;23926;53.222;6.354;2023-05-10T01:04:31;18.63;;;12.55;;
38113;SDS011;23926;53.222;6.354;2023-05-10T01:06:58;10.48;;;8.77;;
38113;SDS011;23926;53.222;6.354;2023-05-10T01:09:24;11.93;;;10.00;;
38113;SDS011;23926;53.222;6.354;2023-05-10T01:11:51;9.63;;;7.75;;
38113;SDS011;23926;53.222;6.354;2023-05-10T01:14:18;16.17;;;10.63;;
38113;SDS011;23926;53.222;6.354;2023-05-10T01:16:44;8.40;;;7.28;;
38113;SDS011;23926;53.222;6.354;2023-05-10T01:19:19;13.23;;;9.15;;
38113;SDS011;23926;53.222;6.354;2023-05-10T01:21:49;20.42;;;13.32;;
38113;SDS011;23926;53.222;6.354;2023-05-10T01:30:16;14.40;;;10.60;;
38113;SDS011;23926;53.222;6.354;2023-05-10T01:32:47;19.08;;;11.75;;
38113;SDS011;23926;53.222;6.354;2023-05-10T01:35:37;14.80;;;11.27;;
38113;SDS011;23926;53.222;6.354;2023-05-10T01:41:11;12.23;;;9.20;;
38113;SDS011;23926;53.222;6.354;2023-05-10T01:43:55;8.00;;;7.20;;
38113;SDS011;23926;53.222;6.354;2023-05-10T01:46:33;20.10;;;11.48;;
38113;SDS011;23926;53.222;6.354;2023-05-10T01:49:02;10.35;;;8.20;;
38113;SDS011;23926;53.222;6.354;2023-05-10T01:51:32;8.50;;;7.53;;
38113;SDS011;23926;53.222;6.354;2023-05-10T01:54:04;8.88;;;6.55;;
38113;SDS011;23926;53.222;6.354;2023-05-10T01:56:31;8.48;;;7.43;;
38113;SDS011;23926;53.222;6.354;2023-05-10T01:58:59;8.35;;;7.47;;
38113;SDS011;23926;53.222;6.354;2023-05-10T02:01:30;8.80;;;7.90;;
38113;SDS011;23926;53.222;6.354;2023-05-10T02:03:58;9.40;;;8.07;;
38113;SDS011;23926;53.222;6.354;2023-05-10T02:06:24;10.35;;;7.20;;
38113;SDS011;23926;53.222;6.354;2023-05-10T02:08:52;11.38;;;9.20;;
38113;SDS011;23926;53.222;6.354;2023-05-10T02:11:18;8.00;;;7.20;;
38113;SDS011;23926;53.222;6.354;2023-05-10T02:13:45;19.00;;;11.43;;
38113;SDS011;23926;53.222;6.354;2023-05-10T02:16:13;17.85;;;10.38;;
38113;SDS011;23926;53.222;6.354;2023-05-10T02:18:40;20.05;;;12.07;;
38113;SDS011;23926;53.222;6.354;2023-05-10T02:21:06;20.63;;;12.43;;
38113;SDS011;23926;53.222;6.354;2023-05-10T02:23:33;16.52;;;12.00;;
38113;SDS011;23926;53.222;6.354;2023-05-10T02:26:00;20.80;;;13.15;;
38113;SDS011;23926;53.222;6.354;2023-05-10T02:28:27;18.27;;;12.55;;
38113;SDS011;23926;53.222;6.354;2023-05-10T02:30:53;16.60;;;11.40;;
38113;SDS011;23926;53.222;6.354;2023-05-10T02:33:19;18.40;;;12.57;;
38113;SDS011;23926;53.222;6.354;2023-05-10T02:35:46;20.67;;;13.43;;
38113;SDS011;23926;53.222;6.354;2023-05-10T02:38:12;16.83;;;11.43;;
38113;SDS011;23926;53.222;6.354;2023-05-10T02:40:39;19.85;;;13.38;;
38113;SDS011;23926;53.222;6.354;2023-05-10T02:43:06;14.35;;;10.23;;
38113;SDS011;23926;53.222;6.354;2023-05-10T02:45:36;23.17;;;15.05;;
38113;SDS011;23926;53.222;6.354;2023-05-10T02:48:04;28.33;;;17.25;;
38113;SDS011;23926;53.222;6.354;2023-05-10T02:50:29;39.22;;;19.08;;
38113;SDS011;23926;53.222;6.354;2023-05-10T02:53:01;20.52;;;13.90;;
38113;SDS011;23926;53.222;6.354;2023-05-10T02:55:32;30.85;;;15.60;;
38113;SDS011;23926;53.222;6.354;2023-05-10T02:58:02;29.00;;;14.98;;
38113;SDS011;23926;53.222;6.354;2023-05-10T03:00:28;29.25;;;16.88;;
38113;SDS011;23926;53.222;6.354;2023-05-10T03:02:54;21.15;;;14.52;;
38113;SDS011;23926;53.222;6.354;2023-05-10T03:05:20;23.40;;;15.02;;
38113;SDS011;23926;53.222;6.354;2023-05-10T03:07:45;25.30;;;15.77;;
38113;SDS011;23926;53.222;6.354;2023-05-10T03:10:12;24.10;;;14.63;;
38113;SDS011;23926;53.222;6.354;2023-05-10T03:15:29;22.58;;;15.68;;
38113;SDS011;23926;53.222;6.354;2023-05-10T03:18:06;27.55;;;17.35;;
38113;SDS011;23926;53.222;6.354;2023-05-10T03:20:36;25.73;;;15.13;;
38113;SDS011;23926;53.222;6.354;2023-05-10T03:25:47;27.00;;;13.60;;
38113;SDS011;23926;53.222;6.354;2023-05-10T03:28:15;22.75;;;13.70;;
38113;SDS011;23926;53.222;6.354;2023-05-10T03:30:42;21.95;;;12.43;;
38113;SDS011;23926;53.222;6.354;2023-05-10T03:33:08;18.23;;;9.38;;
38113;SDS011;23926;53.222;6.354;2023-05-10T03:35:34;11.43;;;7.80;;
38113;SDS011;23926;53.222;6.354;2023-05-10T03:37:59;11.15;;;7.35;;
38113;SDS011;23926;53.222;6.354;2023-05-10T03:40:26;11.35;;;6.93;;
38113;SDS011;23926;53.222;6.354;2023-05-10T03:42:53;9.25;;;7.30;;
38113;SDS011;23926;53.222;6.354;2023-05-10T03:45:19;7.70;;;5.82;;
38113;SDS011;23926;53.222;6.354;2023-05-10T03:47:45;12.18;;;6.50;;
38113;SDS011;23926;53.222;6.354;2023-05-10T03:50:10;10.02;;;6.90;;
38113;SDS011;23926;53.222;6.354;2023-05-10T03:52:35;13.20;;;7.68;;
38113;SDS011;23926;53.222;6.354;2023-05-10T03:55:01;10.48;;;7.70;;
38113;SDS011;23926;53.222;6.354;2023-05-10T03:57:28;8.15;;;6.45;;
38113;SDS011;23926;53.222;6.354;2023-05-10T03:59:54;6.53;;;5.07;;
38113;SDS011;23926;53.222;6.354;2023-05-10T04:02:19;8.75;;;6.45;;
38113;SDS011;23926;53.222;6.354;2023-05-10T04:04:44;9.38;;;6.68;;
38113;SDS011;23926;53.222;6.354;2023-05-10T04:07:10;9.63;;;6.95;;
38113;SDS011;23926;53.222;6.354;2023-05-10T04:09:35;10.23;;;7.13;;
38113;SDS011;23926;53.222;6.354;2023-05-10T04:12:00;6.20;;;5.40;;
38113;SDS011;23926;53.222;6.354;2023-05-10T04:14:27;4.70;;;4.28;;
38113;SDS011;23926;53.222;6.354;2023-05-10T04:16:52;5.38;;;4.07;;
38113;SDS011;23926;53.222;6.354;2023-05-10T04:19:18;7.95;;;6.43;;
38113;SDS011;23926;53.222;6.354;2023-05-10T04:21:43;5.47;;;4.55;;
38113;SDS011;23926;53.222;6.354;2023-05-10T04:24:09;6.15;;;5.22;;
38113;SDS011;23926;53.222;6.354;2023-05-10T04:26:34;8.80;;;6.47;;
38113;SDS011;23926;53.222;6.354;2023-05-10T04:29:00;5.22;;;4.72;;
38113;SDS011;23926;53.222;6.354;2023-05-10T04:31:25;10.35;;;7.38;;
38113;SDS011;23926;53.222;6.354;2023-05-10T04:33:51;12.23;;;9.07;;
38113;SDS011;23926;53.222;6.354;2023-05-10T04:36:17;9.27;;;6.65;;
38113;SDS011;23926;53.222;6.354;2023-05-10T04:38:42;10.85;;;7.53;;
38113;SDS011;23926;53.222;6.354;2023-05-10T04:41:09;8.70;;;6.82;;
38113;SDS011;23926;53.222;6.354;2023-05-10T04:43:35;11.98;;;8.43;;
38113;SDS011;23926;53.222;6.354;2023-05-10T04:46:01;12.35;;;8.23;;
38113;SDS011;23926;53.222;6.354;2023-05-10T04:48:27;8.80;;;7.00;;
38113;SDS011;23926;53.222;6.354;2023-05-10T04:50:52;11.18;;;8.05;;
38113;SDS011;23926;53.222;6.354;2023-05-10T04:53:17;32.67;;;13.50;;
38113;SDS011;23926;53.222;6.354;2023-05-10T04:55:43;10.52;;;7.38;;
38113;SDS011;23926;53.222;6.354;2023-05-10T04:58:08;12.27;;;7.90;;
38113;SDS011;23926;53.222;6.354;2023-05-10T05:00:34;8.85;;;6.68;;
38113;SDS011;23926;53.222;6.354;2023-05-10T05:03:00;19.58;;;9.60;;
38113;SDS011;23926;53.222;6.354;2023-05-10T05:05:25;15.00;;;8.30;;
38113;SDS011;23926;53.222;6.354;2023-05-10T05:07:51;10.25;;;7.45;;
38113;SDS011;23926;53.222;6.354;2023-05-10T05:10:16;15.15;;;8.77;;
38113;SDS011;23926;53.222;6.354;2023-05-10T05:12:42;11.60;;;7.13;;
38113;SDS011;23926;53.222;6.354;2023-05-10T05:15:07;10.40;;;7.53;;
38113;SDS011;23926;53.222;6.354;2023-05-10T05:17:34;9.82;;;6.85;;
38113;SDS011;23926;53.222;6.354;2023-05-10T05:20:00;11.38;;;7.75;;
38113;SDS011;23926;53.222;6.354;2023-05-10T05:22:26;12.35;;;7.63;;
38113;SDS011;23926;53.222;6.354;2023-05-10T05:24:54;19.55;;;10.65;;
38113;SDS011;23926;53.222;6.354;2023-05-10T05:27:21;11.70;;;8.30;;
38113;SDS011;23926;53.222;6.354;2023-05-10T05:29:49;10.20;;;7.47;;
38113;SDS011;23926;53.222;6.354;2023-05-10T05:32:16;24.55;;;11.10;;
38113;SDS011;23926;53.222;6.354;2023-05-10T05:34:41;12.23;;;8.75;;
38113;SDS011;23926;53.222;6.354;2023-05-10T05:37:12;12.50;;;8.23;;
38113;SDS011;23926;53.222;6.354;2023-05-10T05:39:41;9.38;;;7.00;;
38113;SDS011;23926;53.222;6.354;2023-05-10T05:42:08;7.07;;;5.22;;
38113;SDS011;23926;53.222;6.354;2023-05-10T05:44:34;6.20;;;4.97;;
38113;SDS011;23926;53.222;6.354;2023-05-10T05:46:59;4.93;;;4.35;;
38113;SDS011;23926;53.222;6.354;2023-05-10T05:49:25;11.48;;;6.40;;
38113;SDS011;23926;53.222;6.354;2023-05-10T05:51:50;5.28;;;4.78;;
38113;SDS011;23926;53.222;6.354;2023-05-10T05:54:15;7.55;;;5.75;;
38113;SDS011;23926;53.222;6.354;2023-05-10T05:56:41;8.35;;;5.82;;
38113;SDS011;23926;53.222;6.354;2023-05-10T05:59:06;22.52;;;10.30;;
38113;SDS011;23926;53.222;6.354;2023-05-10T06:01:32;24.77;;;12.30;;
38113;SDS011;23926;53.222;6.354;2023-05-10T06:03:59;19.20;;;11.35;;
38113;SDS011;23926;53.222;6.354;2023-05-10T06:06:24;30.67;;;15.23;;
38113;SDS011;23926;53.222;6.354;2023-05-10T06:08:50;24.40;;;13.20;;
38113;SDS011;23926;53.222;6.354;2023-05-10T06:11:16;23.73;;;14.18;;
38113;SDS011;23926;53.222;6.354;2023-05-10T06:13:41;22.13;;;13.70;;
38113;SDS011;23926;53.222;6.354;2023-05-10T06:16:07;47.63;;;20.40;;
38113;SDS011;23926;53.222;6.354;2023-05-10T06:18:32;38.13;;;19.05;;
38113;SDS011;23926;53.222;6.354;2023-05-10T06:20:58;35.42;;;18.05;;
38113;SDS011;23926;53.222;6.354;2023-05-10T06:23:23;44.97;;;19.83;;
38113;SDS011;23926;53.222;6.354;2023-05-10T06:25:50;24.88;;;14.57;;
38113;SDS011;23926;53.222;6.354;2023-05-10T06:28:16;23.10;;;12.32;;
38113;SDS011;23926;53.222;6.354;2023-05-10T06:30:41;22.83;;;9.75;;
38113;SDS011;23926;53.222;6.354;2023-05-10T06:33:07;10.35;;;6.97;;
38113;SDS011;23926;53.222;6.354;2023-05-10T06:35:32;17.65;;;8.50;;
38113;SDS011;23926;53.222;6.354;2023-05-10T06:37:58;8.73;;;5.82;;
38113;SDS011;23926;53.222;6.354;2023-05-10T06:40:23;9.50;;;6.47;;
38113;SDS011;23926;53.222;6.354;2023-05-10T06:42:49;8.57;;;6.07;;
38113;SDS011;23926;53.222;6.354;2023-05-10T06:45:15;11.48;;;6.82;;
38113;SDS011;23926;53.222;6.354;2023-05-10T06:47:40;14.00;;;7.13;;
38113;SDS011;23926;53.222;6.354;2023-05-10T06:50:07;19.33;;;8.10;;
38113;SDS011;23926;53.222;6.354;2023-05-10T06:52:33;9.80;;;6.20;;
38113;SDS011;23926;53.222;6.354;2023-05-10T06:54:59;12.07;;;7.07;;
38113;SDS011;23926;53.222;6.354;2023-05-10T06:57:25;18.23;;;8.32;;
38113;SDS011;23926;53.222;6.354;2023-05-10T06:59:51;17.30;;;8.95;;
38113;SDS011;23926;53.222;6.354;2023-05-10T07:02:17;11.10;;;6.78;;
38113;SDS011;23926;53.222;6.354;2023-05-10T07:04:42;10.13;;;6.82;;
38113;SDS011;23926;53.222;6.354;2023-05-10T07:07:07;9.75;;;6.47;;
38113;SDS011;23926;53.222;6.354;2023-05-10T07:09:33;7.75;;;6.18;;
38113;SDS011;23926;53.222;6.354;2023-05-10T07:11:59;11.70;;;7.13;;
38113;SDS011;23926;53.222;6.354;2023-05-10T07:14:24;8.05;;;6.25;;
38113;SDS011;23926;53.222;6.354;2023-05-10T07:16:49;5.72;;;4.70;;
38113;SDS011;23926;53.222;6.354;2023-05-10T07:19:15;5.85;;;5.07;;
38113;SDS011;23926;53.222;6.354;2023-05-10T07:21:40;7.70;;;4.50;;
38113;SDS011;23926;53.222;6.354;2023-05-10T07:24:08;5.13;;;4.10;;
38113;SDS011;23926;53.222;6.354;2023-05-10T07:26:33;3.42;;;3.10;;
38113;SDS011;23926;53.222;6.354;2023-05-10T07:28:59;5.82;;;3.90;;
38113;SDS011;23926;53.222;6.354;2023-05-10T07:31:24;4.80;;;4.30;;
38113;SDS011;23926;53.222;6.354;2023-05-10T07:33:49;5.57;;;4.93;;
38113;SDS011;23926;53.222;6.354;2023-05-10T07:36:15;7.07;;;5.47;;
38113;SDS011;23926;53.222;6.354;2023-05-10T07:38:40;4.72;;;4.22;;
38113;SDS011;23926;53.222;6.354;2023-05-10T07:41:06;6.72;;;4.80;;
38113;SDS011;23926;53.222;6.354;2023-05-10T07:43:31;5.63;;;4.93;;
38113;SDS011;23926;53.222;6.354;2023-05-10T07:45:56;7.93;;;4.85;;
38113;SDS011;23926;53.222;6.354;2023-05-10T07:48:22;7.10;;;5.00;;
38113;SDS011;23926;53.222;6.354;2023-05-10T07:50:48;6.00;;;4.90;;
38113;SDS011;23926;53.222;6.354;2023-05-10T07:53:13;5.25;;;4.72;;
38113;SDS011;23926;53.222;6.354;2023-05-10T07:55:38;5.32;;;4.82;;
38113;SDS011;23926;53.222;6.354;2023-05-10T07:58:04;5.57;;;4.75;;
38113;SDS011;23926;53.222;6.354;2023-05-10T08:00:29;5.75;;;4.97;;
38113;SDS011;23926;53.222;6.354;2023-05-10T08:02:55;7.70;;;5.78;;
38113;SDS011;23926;53.222;6.354;2023-05-10T08:05:20;6.10;;;5.18;;
38113;SDS011;23926;53.222;6.354;2023-05-10T08:07:45;7.35;;;5.05;;
38113;SDS011;23926;53.222;6.354;2023-05-10T08:10:11;9.30;;;6.15;;
38113;SDS011;23926;53.222;6.354;2023-05-10T08:12:36;10.48;;;6.90;;
38113;SDS011;23926;53.222;6.354;2023-05-10T08:15:03;7.07;;;5.47;;
38113;SDS011;23926;53.222;6.354;2023-05-10T08:17:29;7.57;;;6.47;;
38113;SDS011;23926;53.222;6.354;2023-05-10T08:19:54;7.05;;;6.35;;
38113;SDS011;23926;53.222;6.354;2023-05-10T08:22:20;8.27;;;6.30;;
38113;SDS011;23926;53.222;6.354;2023-05-10T08:24:45;8.07;;;6.65;;
38113;SDS011;23926;53.222;6.354;2023-05-10T08:27:10;7.28;;;6.25;;
38113;SDS011;23926;53.222;6.354;2023-05-10T08:29:36;11.30;;;7.85;;
38113;SDS011;23926;53.222;6.354;2023-05-10T08:32:02;10.18;;;7.35;;
38113;SDS011;23926;53.222;6.354;2023-05-10T08:34:28;12.20;;;8.20;;
38113;SDS011;23926;53.222;6.354;2023-05-10T08:36:53;11.88;;;8.30;;
38113;SDS011;23926;53.222;6.354;2023-05-10T08:39:18;10.55;;;7.22;;
38113;SDS011;23926;53.222;6.354;2023-05-10T08:41:44;13.15;;;8.80;;
38113;SDS011;23926;53.222;6.354;2023-05-10T08:44:11;10.30;;;7.90;;
38113;SDS011;23926;53.222;6.354;2023-05-10T08:46:37;9.15;;;7.65;;
38113;SDS011;23926;53.222;6.354;2023-05-10T08:49:10;7.78;;;6.53;;
38113;SDS011;23926;53.222;6.354;2023-05-10T08:51:43;10.73;;;5.50;;
38113;SDS011;23926;53.222;6.354;2023-05-10T08:54:12;9.30;;;6.25;;
38113;SDS011;23926;53.222;6.354;2023-05-10T08:56:37;8.38;;;6.68;;
38113;SDS011;23926;53.222;6.354;2023-05-10T08:59:03;9.07;;;6.07;;
38113;SDS011;23926;53.222;6.354;2023-05-10T09:01:29;7.18;;;6.00;;
38113;SDS011;23926;53.222;6.354;2023-05-10T09:03:56;6.97;;;4.85;;
38113;SDS011;23926;53.222;6.354;2023-05-10T09:06:23;9.05;;;6.75;;
38113;SDS011;23926;53.222;6.354;2023-05-10T09:08:49;7.72;;;6.03;;
38113;SDS011;23926;53.222;6.354;2023-05-10T09:11:15;9.32;;;6.53;;
38113;SDS011;23926;53.222;6.354;2023-05-10T09:13:41;12.32;;;6.55;;
38113;SDS011;23926;53.222;6.354;2023-05-10T09:16:07;10.73;;;6.70;;
38113;SDS011;23926;53.222;6.354;2023-05-10T09:18:33;7.88;;;6.43;;
38113;SDS011;23926;53.222;6.354;2023-05-10T09:20:58;7.32;;;6.00;;
38113;SDS011;23926;53.222;6.354;2023-05-10T09:23:23;8.40;;;6.85;;
38113;SDS011;23926;53.222;6.354;2023-05-10T09:26:05;7.50;;;6.70;;
38113;SDS011;23926;53.222;6.354;2023-05-10T09:28:49;11.68;;;7.65;;
38113;SDS011;23926;53.222;6.354;2023-05-10T09:31:19;12.63;;;8.10;;
38113;SDS011;23926;53.222;6.354;2023-05-10T09:33:45;10.27;;;6.70;;
38113;SDS011;23926;53.222;6.354;2023-05-10T09:36:12;12.52;;;7.15;;
38113;SDS011;23926;53.222;6.354;2023-05-10T09:38:51;9.27;;;6.38;;
38113;SDS011;23926;53.222;6.354;2023-05-10T09:41:21;11.32;;;7.00;;
38113;SDS011;23926;53.222;6.354;2023-05-10T09:43:47;7.93;;;6.25;;
38113;SDS011;23926;53.222;6.354;2023-05-10T09:46:14;8.02;;;6.53;;
38113;SDS011;23926;53.222;6.354;2023-05-10T09:48:46;9.45;;;6.43;;
38113;SDS011;23926;53.222;6.354;2023-05-10T09:51:19;6.55;;;5.30;;
38113;SDS011;23926;53.222;6.354;2023-05-10T09:53:48;5.97;;;5.30;;
38113;SDS011;23926;53.222;6.354;2023-05-10T09:56:32;7.22;;;5.15;;
38113;SDS011;23926;53.222;6.354;2023-05-10T09:59:02;6.40;;;5.60;;
38113;SDS011;23926;53.222;6.354;2023-05-10T10:01:28;6.95;;;5.53;;
38113;SDS011;23926;53.222;6.354;2023-05-10T10:03:54;6.55;;;5.85;;
38113;SDS011;23926;53.222;6.354;2023-05-10T10:06:19;6.90;;;5.53;;
38113;SDS011;23926;53.222;6.354;2023-05-10T10:08:45;8.02;;;5.85;;
38113;SDS011;23926;53.222;6.354;2023-05-10T10:11:11;6.30;;;5.18;;
38113;SDS011;23926;53.222;6.354;2023-05-10T10:13:36;7.18;;;6.20;;
38113;SDS011;23926;53.222;6.354;2023-05-10T10:16:02;8.52;;;6.15;;
38113;SDS011;23926;53.222;6.354;2023-05-10T10:18:27;7.15;;;6.28;;
38113;SDS011;23926;53.222;6.354;2023-05-10T10:20:55;7.90;;;6.55;;
38113;SDS011;23926;53.222;6.354;2023-05-10T10:23:21;10.55;;;8.60;;
38113;SDS011;23926;53.222;6.354;2023-05-10T10:25:46;7.95;;;6.65;;
38113;SDS011;23926;53.222;6.354;2023-05-10T10:30:52;9.05;;;7.15;;
38113;SDS011;23926;53.222;6.354;2023-05-10T10:36:05;12.20;;;9.45;;
38113;SDS011;23926;53.222;6.354;2023-05-10T10:47:01;11.63;;;8.95;;
38113;SDS011;23926;53.222;6.354;2023-05-10T10:55:03;14.40;;;9.52;;
38113;SDS011;23926;53.222;6.354;2023-05-10T10:57:51;16.23;;;11.20;;
38113;SDS011;23926;53.222;6.354;2023-05-10T11:02:47;13.43;;;8.77;;
38113;SDS011;23926;53.222;6.354;2023-05-10T11:05:22;14.38;;;9.68;;
38113;SDS011;23926;53.222;6.354;2023-05-10T11:07:56;19.40;;;9.80;;
38113;SDS011;23926;53.222;6.354;2023-05-10T11:10:22;11.20;;;8.60;;
38113;SDS011;23926;53.222;6.354;2023-05-10T11:12:58;11.60;;;8.82;;
38113;SDS011;23926;53.222;6.354;2023-05-10T11:15:36;12.40;;;8.15;;
38113;SDS011;23926;53.222;6.354;2023-05-10T11:18:19;11.32;;;8.07;;
38113;SDS011;23926;53.222;6.354;2023-05-10T11:23:47;14.25;;;9.68;;
38113;SDS011;23926;53.222;6.354;2023-05-10T11:26:13;11.73;;;8.75;;
38113;SDS011;23926;53.222;6.354;2023-05-10T11:28:45;13.85;;;9.45;;
38113;SDS011;23926;53.222;6.354;2023-05-10T11:31:17;15.05;;;10.23;;
38113;SDS011;23926;53.222;6.354;2023-05-10T11:33:47;12.27;;;8.13;;
38113;SDS011;23926;53.222;6.354;2023-05-10T11:36:26;13.98;;;9.05;;
38113;SDS011;23926;53.222;6.354;2023-05-10T11:38:54;11.95;;;9.05;;
38113;SDS011;23926;53.222;6.354;2023-05-10T11:41:21;14.07;;;9.70;;
38113;SDS011;23926;53.222;6.354;2023-05-10T11:43:49;13.23;;;8.13;;
38113;SDS011;23926;53.222;6.354;2023-05-10T11:46:16;12.60;;;8.90;;
38113;SDS011;23926;53.222;6.354;2023-05-10T11:48:45;14.27;;;9.05;;
38113;SDS011;23926;53.222;6.354;2023-05-10T11:51:12;20.58;;;12.65;;
38113;SDS011;23926;53.222;6.354;2023-05-10T11:53:37;17.80;;;10.65;;
38113;SDS011;23926;53.222;6.354;2023-05-10T11:56:06;15.75;;;10.20;;
38113;SDS011;23926;53.222;6.354;2023-05-10T11:58:33;19.88;;;10.88;;
38113;SDS011;23926;53.222;6.354;2023-05-10T12:00:59;16.45;;;10.38;;
38113;SDS011;23926;53.222;6.354;2023-05-10T12:03:26;15.57;;;10.27;;
38113;SDS011;23926;53.222;6.354;2023-05-10T12:05:52;17.40;;;10.30;;
38113;SDS011;23926;53.222;6.354;2023-05-10T12:08:23;16.77;;;10.70;;
38113;SDS011;23926;53.222;6.354;2023-05-10T12:10:53;14.82;;;10.07;;
38113;SDS011;23926;53.222;6.354;2023-05-10T12:13:28;13.88;;;9.25;;
38113;SDS011;23926;53.222;6.354;2023-05-10T12:15:53;14.90;;;8.75;;
38113;SDS011;23926;53.222;6.354;2023-05-10T12:18:23;13.82;;;9.05;;
38113;SDS011;23926;53.222;6.354;2023-05-10T12:20:52;14.20;;;8.75;;
38113;SDS011;23926;53.222;6.354;2023-05-10T12:23:21;14.00;;;7.90;;
38113;SDS011;23926;53.222;6.354;2023-05-10T12:25:46;12.65;;;8.57;;
38113;SDS011;23926;53.222;6.354;2023-05-10T12:28:12;12.43;;;8.77;;
38113;SDS011;23926;53.222;6.354;2023-05-10T12:30:38;12.68;;;8.95;;
38113;SDS011;23926;53.222;6.354;2023-05-10T12:33:09;10.68;;;8.25;;
38113;SDS011;23926;53.222;6.354;2023-05-10T12:35:48;12.10;;;8.48;;
38113;SDS011;23926;53.222;6.354;2023-05-10T12:38:36;13.10;;;9.52;;
38113;SDS011;23926;53.222;6.354;2023-05-10T12:41:07;12.23;;;9.57;;
38113;SDS011;23926;53.222;6.354;2023-05-10T12:43:34;14.90;;;9.07;;
38113;SDS011;23926;53.222;6.354;2023-05-10T12:46:10;14.90;;;9.32;;
38113;SDS011;23926;53.222;6.354;2023-05-10T12:48:41;12.60;;;8.00;;
38113;SDS011;23926;53.222;6.354;2023-05-10T12:51:07;13.20;;;9.20;;
38113;SDS011;23926;53.222;6.354;2023-05-10T12:53:42;16.08;;;9.38;;
38113;SDS011;23926;53.222;6.354;2023-05-10T12:56:07;9.98;;;7.55;;
38113;SDS011;23926;53.222;6.354;2023-05-10T12:58:33;12.25;;;8.45;;
38113;SDS011;23926;53.222;6.354;2023-05-10T13:00:59;13.82;;;9.85;;
38113;SDS011;23926;53.222;6.354;2023-05-10T13:03:25;12.25;;;8.23;;
38113;SDS011;23926;53.222;6.354;2023-05-10T13:05:50;12.50;;;9.52;;
38113;SDS011;23926;53.222;6.354;2023-05-10T13:08:16;13.45;;;9.73;;
38113;SDS011;23926;53.222;6.354;2023-05-10T13:10:41;13.82;;;9.75;;
38113;SDS011;23926;53.222;6.354;2023-05-10T13:13:07;12.85;;;9.65;;
38113;SDS011;23926;53.222;6.354;2023-05-10T13:15:33;14.13;;;9.48;;
38113;SDS011;23926;53.222;6.354;2023-05-10T13:17:59;15.63;;;11.95;;
38113;SDS011;23926;53.222;6.354;2023-05-10T13:20:25;14.30;;;10.27;;
38113;SDS011;23926;53.222;6.354;2023-05-10T13:22:50;15.90;;;10.82;;
38113;SDS011;23926;53.222;6.354;2023-05-10T13:25:16;17.15;;;10.63;;
38113;SDS011;23926;53.222;6.354;2023-05-10T13:27:41;16.23;;;10.73;;
38113;SDS011;23926;53.222;6.354;2023-05-10T13:30:07;17.48;;;11.32;;
38113;SDS011;23926;53.222;6.354;2023-05-10T13:32:34;14.27;;;10.13;;
38113;SDS011;23926;53.222;6.354;2023-05-10T13:34:59;11.98;;;8.85;;
38113;SDS011;23926;53.222;6.354;2023-05-10T13:37:25;14.00;;;9.35;;
38113;SDS011;23926;53.222;6.354;2023-05-10T13:39:50;14.50;;;10.85;;
38113;SDS011;23926;53.222;6.354;2023-05-10T13:42:16;14.05;;;10.13;;
38113;SDS011;23926;53.222;6.354;2023-05-10T13:44:42;16.90;;;10.82;;
38113;SDS011;23926;53.222;6.354;2023-05-10T13:47:08;13.70;;;10.50;;
38113;SDS011;23926;53.222;6.354;2023-05-10T13:49:33;14.30;;;10.18;;
38113;SDS011;23926;53.222;6.354;2023-05-10T13:51:59;13.02;;;9.65;;
38113;SDS011;23926;53.222;6.354;2023-05-10T13:54:31;14.07;;;9.83;;
38113;SDS011;23926;53.222;6.354;2023-05-10T13:56:57;13.63;;;9.90;;
38113;SDS011;23926;53.222;6.354;2023-05-10T13:59:22;16.40;;;11.30;;
38113;SDS011;23926;53.222;6.354;2023-05-10T14:01:48;14.45;;;11.48;;
38113;SDS011;23926;53.222;6.354;2023-05-10T14:04:13;19.02;;;12.68;;
38113;SDS011;23926;53.222;6.354;2023-05-10T14:06:38;15.90;;;11.25;;
38113;SDS011;23926;53.222;6.354;2023-05-10T14:09:04;18.02;;;13.13;;
38113;SDS011;23926;53.222;6.354;2023-05-10T14:11:29;16.65;;;12.55;;
38113;SDS011;23926;53.222;6.354;2023-05-10T14:13:55;18.52;;;13.20;;
38113;SDS011;23926;53.222;6.354;2023-05-10T14:16:20;16.33;;;12.25;;
38113;SDS011;23926;53.222;6.354;2023-05-10T14:18:46;19.13;;;12.77;;
38113;SDS011;23926;53.222;6.354;2023-05-10T14:21:12;15.55;;;11.63;;
38113;SDS011;23926;53.222;6.354;2023-05-10T14:23:38;16.88;;;13.15;;
38113;SDS011;23926;53.222;6.354;2023-05-10T14:26:03;15.80;;;12.02;;
38113;SDS011;23926;53.222;6.354;2023-05-10T14:28:29;17.05;;;11.93;;
38113;SDS011;23926;53.222;6.354;2023-05-10T14:30:54;16.05;;;12.30;;
38113;SDS011;23926;53.222;6.354;2023-05-10T14:33:20;17.40;;;11.57;;
38113;SDS011;23926;53.222;6.354;2023-05-10T14:35:46;19.55;;;12.43;;
38113;SDS011;23926;53.222;6.354;2023-05-10T14:38:12;15.43;;;12.02;;
38113;SDS011;23926;53.222;6.354;2023-05-10T14:40:38;14.60;;;11.30;;
38113;SDS011;23926;53.222;6.354;2023-05-10T14:43:03;18.58;;;12.68;;
38113;SDS011;23926;53.222;6.354;2023-05-10T14:45:30;17.63;;;12.48;;
38113;SDS011;23926;53.222;6.354;2023-05-10T14:47:56;18.27;;;12.48;;
38113;SDS011;23926;53.222;6.354;2023-05-10T14:50:22;19.85;;;12.32;;
38113;SDS011;23926;53.222;6.354;2023-05-10T14:52:47;14.68;;;11.10;;
38113;SDS011;23926;53.222;6.354;2023-05-10T14:55:13;15.52;;;11.48;;
38113;SDS011;23926;53.222;6.354;2023-05-10T14:57:38;15.30;;;11.65;;
38113;SDS011;23926;53.222;6.354;2023-05-10T15:00:04;14.70;;;11.70;;
38113;SDS011;23926;53.222;6.354;2023-05-10T15:02:33;13.65;;;10.80;;
38113;SDS011;23926;53.222;6.354;2023-05-10T15:04:58;14.10;;;10.48;;
38113;SDS011;23926;53.222;6.354;2023-05-10T15:07:23;10.52;;;8.40;;
38113;SDS011;23926;53.222;6.354;2023-05-10T15:09:49;13.88;;;8.55;;
38113;SDS011;23926;53.222;6.354;2023-05-10T15:12:16;10.52;;;7.90;;